createdAt,value
2022-11-29T00:11:56.927Z,10.00
2022-11-29T00:25:56.959Z,9.25
2022-11-29T00:39:56.942Z,9.20
2022-11-29T00:53:56.934Z,8.70
2022-11-29T01:07:57.063Z,8.50
2022-11-29T01:21:56.989Z,8.05
2022-11-29T01:35:56.977Z,8.30
2022-11-29T01:49:56.982Z,7.80
2022-11-29T02:03:56.995Z,7.90
2022-11-29T02:17:57.036Z,7.40
2022-11-29T02:31:57.002Z,7.80
2022-11-29T02:45:57.148Z,7.65
2022-11-29T02:59:57.037Z,8.00
2022-11-29T03:13:57.067Z,7.40
2022-11-29T03:27:57.041Z,7.20
2022-11-29T03:41:57.048Z,6.45
2022-11-29T03:55:57.066Z,6.10
2022-11-29T04:09:57.098Z,5.95
2022-11-29T04:23:57.091Z,5.40
2022-11-29T04:37:57.115Z,5.20
2022-11-29T04:51:57.088Z,4.70
2022-11-29T05:05:57.113Z,4.20
2022-11-29T05:19:57.121Z,4.30
2022-11-29T05:33:57.119Z,4.20
2022-11-29T05:47:57.163Z,4.70
2022-11-29T06:01:57.183Z,4.10
2022-11-29T06:15:57.169Z,4.10
2022-11-29T06:24:10.252Z,3.80
2022-11-29T06:38:10.000Z,3.70
2022-11-29T06:53:10.097Z,3.70
2022-11-29T07:08:10.107Z,3.50
2022-11-29T07:23:10.633Z,3.20
2022-11-29T07:38:10.720Z,3.60
2022-11-29T07:53:10.750Z,3.30
2022-11-29T08:08:10.765Z,2.95
2022-11-29T08:23:10.750Z,2.90
2022-11-29T08:38:10.755Z,2.70
2022-11-29T08:53:10.767Z,2.80
2022-11-29T09:08:10.900Z,4.30
2022-11-29T09:23:10.907Z,4.60
2022-11-29T09:38:10.906Z,5.60
2022-11-29T09:53:10.894Z,5.80
2022-11-29T10:08:10.910Z,5.40
2022-11-29T10:23:10.991Z,5.30
2022-11-29T10:38:31.037Z,5.30
2022-11-29T10:53:10.967Z,5.00
2022-11-29T11:08:11.013Z,5.40
2022-11-29T11:23:11.047Z,4.90
2022-11-29T11:38:11.024Z,4.90
2022-11-29T11:53:11.069Z,5.20
2022-11-29T12:08:11.212Z,4.90
2022-11-29T12:23:11.068Z,4.40
2022-11-29T12:39:11.323Z,4.70
2022-11-29T12:54:11.334Z,4.80
2022-11-29T13:09:11.667Z,4.30
2022-11-29T13:24:11.627Z,4.10
2022-11-29T13:39:11.644Z,4.10
2022-11-29T13:54:11.698Z,3.90
2022-11-29T14:09:18.701Z,4.00
2022-11-29T14:24:11.657Z,3.55
2022-11-29T14:39:11.664Z,3.20
2022-11-29T14:54:11.679Z,3.20
2022-11-29T15:09:11.695Z,3.10
2022-11-29T15:24:11.685Z,3.30
2022-11-29T15:39:11.720Z,5.30
2022-11-29T15:54:13.379Z,3.50
2022-11-29T16:09:11.737Z,3.50
2022-11-29T16:23:11.711Z,3.80
2022-11-29T16:37:11.746Z,3.40
2022-11-29T16:51:11.759Z,3.40
2022-11-29T17:05:11.805Z,3.50
2022-11-29T17:20:11.793Z,3.60
2022-11-29T17:34:11.834Z,3.50
2022-11-29T17:48:11.797Z,3.70
2022-11-29T18:02:11.875Z,3.60
2022-11-29T18:05:18.779Z,3.90
2022-11-29T18:19:19.061Z,4.20
2022-11-29T18:33:19.050Z,3.90
2022-11-29T18:48:19.152Z,4.70
2022-11-29T19:02:19.689Z,4.70
2022-11-29T19:16:19.873Z,4.60
2022-11-29T19:30:19.658Z,4.60
2022-11-29T19:44:19.643Z,4.60
2022-11-29T19:58:19.670Z,4.60
2022-11-29T20:12:19.715Z,4.80
2022-11-29T20:26:19.704Z,4.70
2022-11-29T20:40:19.719Z,5.40
2022-11-29T20:54:19.747Z,7.40
2022-11-29T21:08:19.713Z,15.20
2022-11-29T21:22:19.707Z,21.80
2022-11-29T21:36:19.803Z,25.30
2022-11-29T21:50:19.804Z,27.00
2022-11-29T22:04:19.885Z,27.10
2022-11-29T22:18:19.905Z,26.80
2022-11-29T22:32:20.145Z,26.40
2022-11-29T22:44:49.216Z,24.95
2022-11-29T22:58:49.062Z,24.70
2022-11-29T23:12:49.106Z,22.90
2022-11-29T23:26:49.043Z,22.30
2022-11-29T23:40:49.124Z,21.90
2022-11-29T23:54:49.291Z,20.20
